sensor_id;sensor_type;location;lat;lon;timestamp;P1;durP1;ratioP1;P2;durP2;ratioP2
43990;SDS011;29654;50.784;20.604;2023-02-19T00:03:07;15.40;;;9.98;;
43990;SDS011;29654;50.784;20.604;2023-02-19T00:08:11;18.40;;;10.80;;
43990;SDS011;29654;50.784;20.604;2023-02-19T00:13:13;21.67;;;12.10;;
43990;SDS011;29654;50.784;20.604;2023-02-19T00:18:16;13.77;;;8.90;;
43990;SDS011;29654;50.784;20.604;2023-02-19T00:23:20;5.05;;;2.85;;
43990;SDS011;29654;50.784;20.604;2023-02-19T00:28:22;2.67;;;2.10;;
43990;SDS011;29654;50.784;20.604;2023-02-19T00:33:25;3.90;;;2.75;;
43990;SDS011;29654;50.784;20.604;2023-02-19T00:38:30;2.38;;;1.98;;
43990;SDS011;29654;50.784;20.604;2023-02-19T00:43:33;2.05;;;1.70;;
43990;SDS011;29654;50.784;20.604;2023-02-19T00:48:35;2.10;;;1.58;;
43990;SDS011;29654;50.784;20.604;2023-02-19T00:53:39;2.20;;;2.00;;
43990;SDS011;29654;50.784;20.604;2023-02-19T00:58:42;1.85;;;1.75;;
43990;SDS011;29654;50.784;20.604;2023-02-19T01:03:45;2.45;;;2.00;;
43990;SDS011;29654;50.784;20.604;2023-02-19T01:08:49;3.35;;;2.13;;
43990;SDS011;29654;50.784;20.604;2023-02-19T01:13:55;2.47;;;1.98;;
43990;SDS011;29654;50.784;20.604;2023-02-19T01:18:59;2.35;;;2.15;;
43990;SDS011;29654;50.784;20.604;2023-02-19T01:24:03;2.65;;;2.45;;
43990;SDS011;29654;50.784;20.604;2023-02-19T01:29:06;3.53;;;3.00;;
43990;SDS011;29654;50.784;20.604;2023-02-19T01:34:09;3.05;;;2.60;;
43990;SDS011;29654;50.784;20.604;2023-02-19T01:39:14;3.05;;;2.75;;
43990;SDS011;29654;50.784;20.604;2023-02-19T01:50:23;4.47;;;3.03;;
43990;SDS011;29654;50.784;20.604;2023-02-19T01:55:32;3.70;;;3.17;;
43990;SDS011;29654;50.784;20.604;2023-02-19T02:00:35;2.90;;;2.60;;
43990;SDS011;29654;50.784;20.604;2023-02-19T02:05:43;3.50;;;2.15;;
43990;SDS011;29654;50.784;20.604;2023-02-19T02:10:54;3.10;;;2.10;;
43990;SDS011;29654;50.784;20.604;2023-02-19T02:15:59;2.30;;;2.10;;
43990;SDS011;29654;50.784;20.604;2023-02-19T02:21:21;3.97;;;3.08;;
43990;SDS011;29654;50.784;20.604;2023-02-19T02:26:44;6.20;;;4.93;;
43990;SDS011;29654;50.784;20.604;2023-02-19T02:32:01;11.02;;;6.55;;
43990;SDS011;29654;50.784;20.604;2023-02-19T02:37:06;14.50;;;8.77;;
43990;SDS011;29654;50.784;20.604;2023-02-19T02:42:12;13.90;;;8.48;;
43990;SDS011;29654;50.784;20.604;2023-02-19T02:47:52;8.48;;;5.80;;
43990;SDS011;29654;50.784;20.604;2023-02-19T02:52:57;6.90;;;4.88;;
43990;SDS011;29654;50.784;20.604;2023-02-19T02:58:21;6.32;;;4.53;;
43990;SDS011;29654;50.784;20.604;2023-02-19T03:03:30;5.63;;;4.05;;
43990;SDS011;29654;50.784;20.604;2023-02-19T03:08:35;6.10;;;4.32;;
43990;SDS011;29654;50.784;20.604;2023-02-19T03:13:42;5.22;;;3.97;;
43990;SDS011;29654;50.784;20.604;2023-02-19T03:19:06;3.90;;;3.20;;
43990;SDS011;29654;50.784;20.604;2023-02-19T03:24:26;2.97;;;2.72;;
43990;SDS011;29654;50.784;20.604;2023-02-19T03:29:49;3.80;;;2.70;;
43990;SDS011;29654;50.784;20.604;2023-02-19T03:34:58;2.80;;;2.60;;
43990;SDS011;29654;50.784;20.604;2023-02-19T03:40:06;2.95;;;2.53;;
43990;SDS011;29654;50.784;20.604;2023-02-19T03:45:30;3.17;;;2.88;;
43990;SDS011;29654;50.784;20.604;2023-02-19T03:50:44;3.17;;;2.88;;
43990;SDS011;29654;50.784;20.604;2023-02-19T03:55:55;3.58;;;3.03;;
43990;SDS011;29654;50.784;20.604;2023-02-19T04:01:09;3.03;;;2.70;;
43990;SDS011;29654;50.784;20.604;2023-02-19T04:06:21;2.65;;;2.45;;
43990;SDS011;29654;50.784;20.604;2023-02-19T04:11:29;2.83;;;2.63;;
43990;SDS011;29654;50.784;20.604;2023-02-19T04:16:39;4.00;;;2.97;;
43990;SDS011;29654;50.784;20.604;2023-02-19T04:21:48;3.92;;;3.08;;
43990;SDS011;29654;50.784;20.604;2023-02-19T04:26:53;3.30;;;3.00;;
43990;SDS011;29654;50.784;20.604;2023-02-19T04:31:56;3.35;;;3.03;;
43990;SDS011;29654;50.784;20.604;2023-02-19T04:37:00;2.85;;;2.65;;
43990;SDS011;29654;50.784;20.604;2023-02-19T04:42:03;3.28;;;2.97;;
43990;SDS011;29654;50.784;20.604;2023-02-19T04:47:06;3.70;;;3.03;;
43990;SDS011;29654;50.784;20.604;2023-02-19T04:52:10;3.42;;;3.13;;
43990;SDS011;29654;50.784;20.604;2023-02-19T04:57:13;3.20;;;2.65;;
43990;SDS011;29654;50.784;20.604;2023-02-19T05:02:16;3.72;;;2.80;;
43990;SDS011;29654;50.784;20.604;2023-02-19T05:07:20;3.20;;;2.90;;
43990;SDS011;29654;50.784;20.604;2023-02-19T05:12:22;4.15;;;3.58;;
43990;SDS011;29654;50.784;20.604;2023-02-19T05:17:25;3.58;;;3.28;;
43990;SDS011;29654;50.784;20.604;2023-02-19T05:22:29;4.95;;;3.67;;
43990;SDS011;29654;50.784;20.604;2023-02-19T05:27:31;4.53;;;3.80;;
43990;SDS011;29654;50.784;20.604;2023-02-19T05:32:34;4.55;;;3.88;;
43990;SDS011;29654;50.784;20.604;2023-02-19T05:37:38;4.43;;;3.80;;
43990;SDS011;29654;50.784;20.604;2023-02-19T05:42:41;4.25;;;3.63;;
43990;SDS011;29654;50.784;20.604;2023-02-19T05:47:43;3.92;;;3.53;;
43990;SDS011;29654;50.784;20.604;2023-02-19T05:52:47;5.55;;;3.75;;
43990;SDS011;29654;50.784;20.604;2023-02-19T05:57:50;4.53;;;3.45;;
43990;SDS011;29654;50.784;20.604;2023-02-19T06:02:52;5.80;;;3.95;;
43990;SDS011;29654;50.784;20.604;2023-02-19T06:07:57;5.18;;;4.35;;
43990;SDS011;29654;50.784;20.604;2023-02-19T06:12:59;6.00;;;4.35;;
43990;SDS011;29654;50.784;20.604;2023-02-19T06:18:02;4.57;;;4.05;;
43990;SDS011;29654;50.784;20.604;2023-02-19T06:23:06;4.85;;;4.10;;
43990;SDS011;29654;50.784;20.604;2023-02-19T06:28:08;5.70;;;4.35;;
43990;SDS011;29654;50.784;20.604;2023-02-19T06:33:12;4.82;;;4.22;;
43990;SDS011;29654;50.784;20.604;2023-02-19T06:38:16;5.50;;;4.70;;
43990;SDS011;29654;50.784;20.604;2023-02-19T06:43:18;5.00;;;4.53;;
43990;SDS011;29654;50.784;20.604;2023-02-19T06:48:21;5.28;;;4.78;;
43990;SDS011;29654;50.784;20.604;2023-02-19T06:53:25;5.63;;;5.05;;
43990;SDS011;29654;50.784;20.604;2023-02-19T06:58:27;7.13;;;6.10;;
43990;SDS011;29654;50.784;20.604;2023-02-19T07:03:30;8.10;;;6.47;;
43990;SDS011;29654;50.784;20.604;2023-02-19T07:08:34;12.82;;;7.68;;
43990;SDS011;29654;50.784;20.604;2023-02-19T07:13:37;9.57;;;6.30;;
43990;SDS011;29654;50.784;20.604;2023-02-19T07:18:39;7.75;;;6.45;;
43990;SDS011;29654;50.784;20.604;2023-02-19T07:23:43;5.97;;;5.13;;
43990;SDS011;29654;50.784;20.604;2023-02-19T07:28:47;6.32;;;5.55;;
43990;SDS011;29654;50.784;20.604;2023-02-19T07:33:51;7.50;;;6.70;;
43990;SDS011;29654;50.784;20.604;2023-02-19T07:38:56;7.50;;;5.93;;
43990;SDS011;29654;50.784;20.604;2023-02-19T07:43:59;7.53;;;6.47;;
43990;SDS011;29654;50.784;20.604;2023-02-19T07:49:02;5.75;;;5.20;;
43990;SDS011;29654;50.784;20.604;2023-02-19T07:54:07;7.28;;;4.70;;
43990;SDS011;29654;50.784;20.604;2023-02-19T07:59:10;6.15;;;4.80;;
43990;SDS011;29654;50.784;20.604;2023-02-19T08:04:13;7.03;;;5.25;;
43990;SDS011;29654;50.784;20.604;2023-02-19T08:09:18;7.45;;;5.57;;
43990;SDS011;29654;50.784;20.604;2023-02-19T08:14:22;3.95;;;3.65;;
43990;SDS011;29654;50.784;20.604;2023-02-19T08:19:26;4.47;;;3.88;;
43990;SDS011;29654;50.784;20.604;2023-02-19T08:24:30;7.15;;;4.53;;
43990;SDS011;29654;50.784;20.604;2023-02-19T08:29:33;8.95;;;5.03;;
43990;SDS011;29654;50.784;20.604;2023-02-19T08:34:35;7.15;;;3.97;;
43990;SDS011;29654;50.784;20.604;2023-02-19T08:39:40;5.18;;;3.60;;
43990;SDS011;29654;50.784;20.604;2023-02-19T08:44:42;3.42;;;3.13;;
43990;SDS011;29654;50.784;20.604;2023-02-19T08:49:45;4.25;;;3.45;;
43990;SDS011;29654;50.784;20.604;2023-02-19T08:54:49;5.28;;;3.90;;
43990;SDS011;29654;50.784;20.604;2023-02-19T08:59:51;5.50;;;4.63;;
43990;SDS011;29654;50.784;20.604;2023-02-19T09:04:54;32.22;;;17.98;;
43990;SDS011;29654;50.784;20.604;2023-02-19T09:09:58;8.93;;;6.22;;
43990;SDS011;29654;50.784;20.604;2023-02-19T09:15:02;7.03;;;4.28;;
43990;SDS011;29654;50.784;20.604;2023-02-19T09:20:05;4.45;;;3.20;;
43990;SDS011;29654;50.784;20.604;2023-02-19T09:25:11;5.45;;;3.80;;
43990;SDS011;29654;50.784;20.604;2023-02-19T09:30:14;3.80;;;3.33;;
43990;SDS011;29654;50.784;20.604;2023-02-19T09:35:16;4.78;;;3.95;;
43990;SDS011;29654;50.784;20.604;2023-02-19T09:40:20;7.38;;;4.47;;
43990;SDS011;29654;50.784;20.604;2023-02-19T09:45:24;3.90;;;3.40;;
43990;SDS011;29654;50.784;20.604;2023-02-19T09:50:31;4.82;;;3.13;;
43990;SDS011;29654;50.784;20.604;2023-02-19T09:55:39;4.93;;;4.18;;
43990;SDS011;29654;50.784;20.604;2023-02-19T10:00:44;5.78;;;3.58;;
43990;SDS011;29654;50.784;20.604;2023-02-19T10:05:50;5.28;;;4.57;;
43990;SDS011;29654;50.784;20.604;2023-02-19T10:10:57;7.68;;;5.05;;
43990;SDS011;29654;50.784;20.604;2023-02-19T10:16:01;5.90;;;4.75;;
43990;SDS011;29654;50.784;20.604;2023-02-19T10:21:06;15.38;;;12.60;;
43990;SDS011;29654;50.784;20.604;2023-02-19T10:26:12;9.75;;;7.43;;
43990;SDS011;29654;50.784;20.604;2023-02-19T10:31:16;8.90;;;7.38;;
43990;SDS011;29654;50.784;20.604;2023-02-19T10:36:23;14.27;;;9.27;;
43990;SDS011;29654;50.784;20.604;2023-02-19T10:41:30;15.15;;;9.35;;
43990;SDS011;29654;50.784;20.604;2023-02-19T10:46:33;11.48;;;9.02;;
43990;SDS011;29654;50.784;20.604;2023-02-19T10:51:41;13.98;;;9.88;;
43990;SDS011;29654;50.784;20.604;2023-02-19T10:56:46;12.32;;;7.93;;
43990;SDS011;29654;50.784;20.604;2023-02-19T11:01:52;10.50;;;6.85;;
43990;SDS011;29654;50.784;20.604;2023-02-19T11:07:01;8.48;;;6.10;;
43990;SDS011;29654;50.784;20.604;2023-02-19T11:12:11;19.98;;;11.50;;
43990;SDS011;29654;50.784;20.604;2023-02-19T11:17:19;23.30;;;14.73;;
43990;SDS011;29654;50.784;20.604;2023-02-19T11:22:27;14.68;;;9.32;;
43990;SDS011;29654;50.784;20.604;2023-02-19T11:27:34;11.05;;;7.47;;
43990;SDS011;29654;50.784;20.604;2023-02-19T11:32:54;9.25;;;6.65;;
43990;SDS011;29654;50.784;20.604;2023-02-19T11:37:57;10.07;;;6.47;;
43990;SDS011;29654;50.784;20.604;2023-02-19T11:43:04;11.35;;;7.10;;
43990;SDS011;29654;50.784;20.604;2023-02-19T11:48:25;10.18;;;7.55;;
43990;SDS011;29654;50.784;20.604;2023-02-19T11:53:44;8.90;;;5.75;;
43990;SDS011;29654;50.784;20.604;2023-02-19T11:58:56;8.13;;;5.00;;
43990;SDS011;29654;50.784;20.604;2023-02-19T12:04:22;9.88;;;6.50;;
43990;SDS011;29654;50.784;20.604;2023-02-19T12:10:18;11.00;;;7.18;;
43990;SDS011;29654;50.784;20.604;2023-02-19T12:15:32;6.07;;;4.60;;
43990;SDS011;29654;50.784;20.604;2023-02-19T12:21:02;8.15;;;4.32;;
43990;SDS011;29654;50.784;20.604;2023-02-19T12:26:18;8.02;;;5.20;;
43990;SDS011;29654;50.784;20.604;2023-02-19T12:31:41;4.10;;;3.20;;
43990;SDS011;29654;50.784;20.604;2023-02-19T12:37:17;6.65;;;4.50;;
43990;SDS011;29654;50.784;20.604;2023-02-19T12:42:37;4.10;;;3.70;;
43990;SDS011;29654;50.784;20.604;2023-02-19T12:47:57;2.97;;;2.67;;
43990;SDS011;29654;50.784;20.604;2023-02-19T12:53:05;4.75;;;3.30;;
43990;SDS011;29654;50.784;20.604;2023-02-19T12:58:29;3.35;;;2.90;;
43990;SDS011;29654;50.784;20.604;2023-02-19T13:03:43;7.15;;;4.68;;
43990;SDS011;29654;50.784;20.604;2023-02-19T13:08:52;14.48;;;8.63;;
43990;SDS011;29654;50.784;20.604;2023-02-19T13:13:58;13.05;;;8.45;;
43990;SDS011;29654;50.784;20.604;2023-02-19T13:19:09;11.57;;;8.02;;
43990;SDS011;29654;50.784;20.604;2023-02-19T13:24:15;15.65;;;9.65;;
43990;SDS011;29654;50.784;20.604;2023-02-19T13:29:35;9.70;;;7.00;;
43990;SDS011;29654;50.784;20.604;2023-02-19T13:35:31;5.90;;;4.63;;
43990;SDS011;29654;50.784;20.604;2023-02-19T13:41:17;6.03;;;3.70;;
43990;SDS011;29654;50.784;20.604;2023-02-19T13:46:35;4.70;;;3.70;;
43990;SDS011;29654;50.784;20.604;2023-02-19T13:51:48;6.85;;;4.95;;
43990;SDS011;29654;50.784;20.604;2023-02-19T14:02:30;7.20;;;5.32;;
43990;SDS011;29654;50.784;20.604;2023-02-19T14:07:37;6.70;;;5.60;;
43990;SDS011;29654;50.784;20.604;2023-02-19T14:12:54;13.88;;;8.38;;
43990;SDS011;29654;50.784;20.604;2023-02-19T14:17:57;14.77;;;10.73;;
43990;SDS011;29654;50.784;20.604;2023-02-19T14:23:07;10.95;;;7.82;;
43990;SDS011;29654;50.784;20.604;2023-02-19T14:28:18;8.10;;;4.68;;
43990;SDS011;29654;50.784;20.604;2023-02-19T14:33:30;4.45;;;3.50;;
43990;SDS011;29654;50.784;20.604;2023-02-19T14:38:37;4.57;;;3.70;;
43990;SDS011;29654;50.784;20.604;2023-02-19T14:43:45;8.27;;;3.72;;
43990;SDS011;29654;50.784;20.604;2023-02-19T14:48:51;5.03;;;2.83;;
43990;SDS011;29654;50.784;20.604;2023-02-19T14:53:55;7.43;;;3.38;;
43990;SDS011;29654;50.784;20.604;2023-02-19T15:04:27;6.15;;;3.70;;
43990;SDS011;29654;50.784;20.604;2023-02-19T15:09:37;4.20;;;3.40;;
43990;SDS011;29654;50.784;20.604;2023-02-19T15:14:42;7.05;;;4.00;;
43990;SDS011;29654;50.784;20.604;2023-02-19T15:19:46;6.50;;;4.13;;
43990;SDS011;29654;50.784;20.604;2023-02-19T15:24:50;6.75;;;4.18;;
43990;SDS011;29654;50.784;20.604;2023-02-19T15:29:53;6.40;;;5.38;;
43990;SDS011;29654;50.784;20.604;2023-02-19T15:34:56;7.63;;;4.18;;
43990;SDS011;29654;50.784;20.604;2023-02-19T15:40:03;4.70;;;3.38;;
43990;SDS011;29654;50.784;20.604;2023-02-19T15:45:12;5.68;;;3.53;;
43990;SDS011;29654;50.784;20.604;2023-02-19T15:50:21;7.47;;;3.40;;
43990;SDS011;29654;50.784;20.604;2023-02-19T15:55:30;5.50;;;3.30;;
43990;SDS011;29654;50.784;20.604;2023-02-19T16:00:37;4.43;;;3.97;;
43990;SDS011;29654;50.784;20.604;2023-02-19T16:05:56;7.95;;;4.55;;
43990;SDS011;29654;50.784;20.604;2023-02-19T16:11:02;6.18;;;4.18;;
43990;SDS011;29654;50.784;20.604;2023-02-19T16:16:22;7.57;;;4.57;;
43990;SDS011;29654;50.784;20.604;2023-02-19T16:21:29;12.38;;;7.63;;
43990;SDS011;29654;50.784;20.604;2023-02-19T16:26:39;9.07;;;5.90;;
43990;SDS011;29654;50.784;20.604;2023-02-19T16:31:45;9.13;;;5.32;;
43990;SDS011;29654;50.784;20.604;2023-02-19T16:36:50;12.38;;;6.32;;
43990;SDS011;29654;50.784;20.604;2023-02-19T16:47:33;13.07;;;6.30;;
43990;SDS011;29654;50.784;20.604;2023-02-19T16:52:50;9.35;;;4.88;;
43990;SDS011;29654;50.784;20.604;2023-02-19T16:57:55;10.45;;;4.50;;
43990;SDS011;29654;50.784;20.604;2023-02-19T17:02:59;8.48;;;4.07;;
43990;SDS011;29654;50.784;20.604;2023-02-19T17:08:12;5.15;;;3.42;;
43990;SDS011;29654;50.784;20.604;2023-02-19T17:13:35;7.53;;;3.58;;
43990;SDS011;29654;50.784;20.604;2023-02-19T17:18:38;5.82;;;4.03;;
43990;SDS011;29654;50.784;20.604;2023-02-19T17:23:40;5.80;;;4.05;;
43990;SDS011;29654;50.784;20.604;2023-02-19T17:28:45;4.88;;;3.35;;
43990;SDS011;29654;50.784;20.604;2023-02-19T17:33:47;5.18;;;3.88;;
43990;SDS011;29654;50.784;20.604;2023-02-19T17:38:51;5.45;;;3.90;;
43990;SDS011;29654;50.784;20.604;2023-02-19T17:43:55;5.40;;;4.05;;
43990;SDS011;29654;50.784;20.604;2023-02-19T17:48:57;8.25;;;4.07;;
43990;SDS011;29654;50.784;20.604;2023-02-19T17:54:00;7.43;;;3.95;;
43990;SDS011;29654;50.784;20.604;2023-02-19T17:59:04;6.93;;;3.83;;
43990;SDS011;29654;50.784;20.604;2023-02-19T18:04:06;6.30;;;3.85;;
43990;SDS011;29654;50.784;20.604;2023-02-19T18:09:09;6.70;;;3.95;;
43990;SDS011;29654;50.784;20.604;2023-02-19T18:14:15;6.28;;;4.22;;
43990;SDS011;29654;50.784;20.604;2023-02-19T18:19:18;5.18;;;3.50;;
43990;SDS011;29654;50.784;20.604;2023-02-19T18:24:22;6.68;;;3.88;;
43990;SDS011;29654;50.784;20.604;2023-02-19T18:29:26;7.50;;;3.90;;
43990;SDS011;29654;50.784;20.604;2023-02-19T18:34:30;6.50;;;3.90;;
43990;SDS011;29654;50.784;20.604;2023-02-19T18:39:32;7.00;;;4.88;;
43990;SDS011;29654;50.784;20.604;2023-02-19T18:44:36;9.05;;;4.88;;
43990;SDS011;29654;50.784;20.604;2023-02-19T18:49:43;10.30;;;4.93;;
43990;SDS011;29654;50.784;20.604;2023-02-19T18:54:47;6.50;;;4.20;;
43990;SDS011;29654;50.784;20.604;2023-02-19T18:59:52;8.55;;;4.15;;
43990;SDS011;29654;50.784;20.604;2023-02-19T19:04:55;6.95;;;4.15;;
43990;SDS011;29654;50.784;20.604;2023-02-19T19:09:57;8.25;;;3.85;;
43990;SDS011;29654;50.784;20.604;2023-02-19T19:15:01;9.38;;;4.80;;
43990;SDS011;29654;50.784;20.604;2023-02-19T19:20:05;9.60;;;4.20;;
43990;SDS011;29654;50.784;20.604;2023-02-19T19:25:09;9.40;;;4.57;;
43990;SDS011;29654;50.784;20.604;2023-02-19T19:30:13;7.20;;;4.45;;
43990;SDS011;29654;50.784;20.604;2023-02-19T19:35:17;6.45;;;4.28;;
43990;SDS011;29654;50.784;20.604;2023-02-19T19:40:20;5.72;;;4.05;;
43990;SDS011;29654;50.784;20.604;2023-02-19T19:45:24;7.00;;;4.57;;
43990;SDS011;29654;50.784;20.604;2023-02-19T19:50:27;6.00;;;4.05;;
43990;SDS011;29654;50.784;20.604;2023-02-19T19:55:30;9.95;;;4.30;;
43990;SDS011;29654;50.784;20.604;2023-02-19T20:00:34;7.43;;;3.75;;
43990;SDS011;29654;50.784;20.604;2023-02-19T20:05:36;10.23;;;4.63;;
43990;SDS011;29654;50.784;20.604;2023-02-19T20:10:39;8.95;;;4.13;;
43990;SDS011;29654;50.784;20.604;2023-02-19T20:15:43;6.50;;;3.72;;
43990;SDS011;29654;50.784;20.604;2023-02-19T20:20:46;9.15;;;4.95;;
43990;SDS011;29654;50.784;20.604;2023-02-19T20:25:48;7.63;;;4.18;;
43990;SDS011;29654;50.784;20.604;2023-02-19T20:30:52;9.82;;;4.53;;
43990;SDS011;29654;50.784;20.604;2023-02-19T20:35:55;8.02;;;4.20;;
43990;SDS011;29654;50.784;20.604;2023-02-19T20:40:57;7.45;;;4.03;;
43990;SDS011;29654;50.784;20.604;2023-02-19T20:46:01;5.50;;;3.38;;
43990;SDS011;29654;50.784;20.604;2023-02-19T20:51:04;9.57;;;4.10;;
43990;SDS011;29654;50.784;20.604;2023-02-19T20:56:07;6.72;;;4.38;;
43990;SDS011;29654;50.784;20.604;2023-02-19T21:01:12;6.35;;;3.95;;
43990;SDS011;29654;50.784;20.604;2023-02-19T21:06:15;9.23;;;4.78;;
43990;SDS011;29654;50.784;20.604;2023-02-19T21:11:17;8.15;;;4.32;;
43990;SDS011;29654;50.784;20.604;2023-02-19T21:16:22;8.55;;;5.07;;
43990;SDS011;29654;50.784;20.604;2023-02-19T21:21:24;8.82;;;4.38;;
43990;SDS011;29654;50.784;20.604;2023-02-19T21:26:32;9.55;;;4.20;;
43990;SDS011;29654;50.784;20.604;2023-02-19T21:31:39;8.10;;;4.18;;
43990;SDS011;29654;50.784;20.604;2023-02-19T21:36:44;7.95;;;4.10;;
43990;SDS011;29654;50.784;20.604;2023-02-19T21:41:46;8.13;;;4.30;;
43990;SDS011;29654;50.784;20.604;2023-02-19T21:46:50;8.75;;;4.22;;
43990;SDS011;29654;50.784;20.604;2023-02-19T21:51:53;7.65;;;4.50;;
43990;SDS011;29654;50.784;20.604;2023-02-19T21:56:56;7.18;;;4.30;;
43990;SDS011;29654;50.784;20.604;2023-02-19T22:02:03;7.93;;;4.32;;
43990;SDS011;29654;50.784;20.604;2023-02-19T22:07:06;7.70;;;3.92;;
43990;SDS011;29654;50.784;20.604;2023-02-19T22:12:08;6.75;;;3.85;;
43990;SDS011;29654;50.784;20.604;2023-02-19T22:17:12;9.23;;;4.38;;
43990;SDS011;29654;50.784;20.604;2023-02-19T22:22:15;8.15;;;4.22;;
43990;SDS011;29654;50.784;20.604;2023-02-19T22:27:18;9.52;;;4.18;;
43990;SDS011;29654;50.784;20.604;2023-02-19T22:32:22;9.07;;;4.20;;
43990;SDS011;29654;50.784;20.604;2023-02-19T22:37:24;5.20;;;3.42;;
43990;SDS011;29654;50.784;20.604;2023-02-19T22:42:28;8.90;;;4.05;;
43990;SDS011;29654;50.784;20.604;2023-02-19T22:47:32;6.90;;;4.18;;
43990;SDS011;29654;50.784;20.604;2023-02-19T22:52:35;6.93;;;4.40;;
43990;SDS011;29654;50.784;20.604;2023-02-19T22:57:38;7.55;;;3.90;;
43990;SDS011;29654;50.784;20.604;2023-02-19T23:02:42;6.78;;;3.88;;
43990;SDS011;29654;50.784;20.604;2023-02-19T23:07:46;6.85;;;4.47;;
43990;SDS011;29654;50.784;20.604;2023-02-19T23:12:48;7.25;;;4.22;;
43990;SDS011;29654;50.784;20.604;2023-02-19T23:17:52;7.68;;;4.43;;
43990;SDS011;29654;50.784;20.604;2023-02-19T23:22:55;7.13;;;4.03;;
43990;SDS011;29654;50.784;20.604;2023-02-19T23:27:57;6.85;;;3.40;;
43990;SDS011;29654;50.784;20.604;2023-02-19T23:33:01;8.60;;;4.60;;
43990;SDS011;29654;50.784;20.604;2023-02-19T23:38:04;7.28;;;4.05;;
43990;SDS011;29654;50.784;20.604;2023-02-19T23:43:06;8.93;;;4.65;;
43990;SDS011;29654;50.784;20.604;2023-02-19T23:48:10;8.00;;;4.45;;
43990;SDS011;29654;50.784;20.604;2023-02-19T23:53:13;7.68;;;4.35;;
43990;SDS011;29654;50.784;20.604;2023-02-19T23:58:15;8.13;;;4.53;;
